sensor_id;sensor_type;location;lat;lon;timestamp;pressure;altitude;pressure_sealevel;temperature;humidity
67840;BME280;54636;51.684;5.142;2022-12-16T00:01:51;101023.22;;;-4.82;100.00
67840;BME280;54636;51.684;5.142;2022-12-16T00:04:18;101022.44;;;-4.86;100.00
67840;BME280;54636;51.684;5.142;2022-12-16T00:06:43;101023.56;;;-4.87;100.00
67840;BME280;54636;51.684;5.142;2022-12-16T00:09:09;101025.06;;;-4.90;100.00
67840;BME280;54636;51.684;5.142;2022-12-16T00:11:34;101026.94;;;-4.90;100.00
67840;BME280;54636;51.684;5.142;2022-12-16T00:14:00;101048.66;;;-4.71;100.00
67840;BME280;54636;51.684;5.142;2022-12-16T00:16:25;101036.97;;;-4.59;100.00
67840;BME280;54636;51.684;5.142;2022-12-16T00:18:51;101016.09;;;-4.71;100.00
67840;BME280;54636;51.684;5.142;2022-12-16T00:21:16;101041.19;;;-4.47;100.00
67840;BME280;54636;51.684;5.142;2022-12-16T00:23:42;101046.47;;;-4.47;100.00
67840;BME280;54636;51.684;5.142;2022-12-16T00:26:09;101045.34;;;-4.50;100.00
67840;BME280;54636;51.684;5.142;2022-12-16T00:28:35;101027.13;;;-4.58;100.00
67840;BME280;54636;51.684;5.142;2022-12-16T00:31:01;101022.94;;;-4.63;100.00
67840;BME280;54636;51.684;5.142;2022-12-16T00:33:27;101047.59;;;-4.48;100.00
67840;BME280;54636;51.684;5.142;2022-12-16T00:35:53;101045.78;;;-4.34;100.00
67840;BME280;54636;51.684;5.142;2022-12-16T00:38:19;101050.00;;;-4.25;100.00
67840;BME280;54636;51.684;5.142;2022-12-16T00:40:44;101056.06;;;-4.25;100.00
67840;BME280;54636;51.684;5.142;2022-12-16T00:43:10;101059.13;;;-4.16;100.00
67840;BME280;54636;51.684;5.142;2022-12-16T00:45:35;101060.31;;;-4.06;100.00
67840;BME280;54636;51.684;5.142;2022-12-16T00:48:01;101061.84;;;-3.98;100.00
67840;BME280;54636;51.684;5.142;2022-12-16T00:50:27;101051.97;;;-4.01;100.00
67840;BME280;54636;51.684;5.142;2022-12-16T00:52:52;101048.59;;;-3.98;100.00
67840;BME280;54636;51.684;5.142;2022-12-16T00:55:18;101042.88;;;-3.89;100.00
67840;BME280;54636;51.684;5.142;2022-12-16T00:57:44;101067.94;;;-3.76;100.00
67840;BME280;54636;51.684;5.142;2022-12-16T01:00:11;101050.88;;;-3.82;100.00
67840;BME280;54636;51.684;5.142;2022-12-16T01:02:45;101071.00;;;-3.63;100.00
67840;BME280;54636;51.684;5.142;2022-12-16T01:05:13;101067.59;;;-3.60;100.00
67840;BME280;54636;51.684;5.142;2022-12-16T01:07:39;101068.00;;;-3.58;100.00
67840;BME280;54636;51.684;5.142;2022-12-16T01:10:06;101064.19;;;-3.57;100.00
67840;BME280;54636;51.684;5.142;2022-12-16T01:12:32;101068.75;;;-3.54;100.00
67840;BME280;54636;51.684;5.142;2022-12-16T01:14:58;101081.28;;;-3.51;100.00
67840;BME280;54636;51.684;5.142;2022-12-16T01:17:24;101085.44;;;-3.50;100.00
67840;BME280;54636;51.684;5.142;2022-12-16T01:19:52;101058.13;;;-3.54;100.00
67840;BME280;54636;51.684;5.142;2022-12-16T01:22:18;101090.78;;;-3.40;100.00
67840;BME280;54636;51.684;5.142;2022-12-16T01:24:47;101095.72;;;-3.35;100.00
67840;BME280;54636;51.684;5.142;2022-12-16T01:27:13;101094.97;;;-3.35;100.00
67840;BME280;54636;51.684;5.142;2022-12-16T01:29:40;101092.31;;;-3.35;100.00
67840;BME280;54636;51.684;5.142;2022-12-16T01:32:06;101098.38;;;-3.35;100.00
67840;BME280;54636;51.684;5.142;2022-12-16T01:34:32;101101.81;;;-3.27;100.00
67840;BME280;54636;51.684;5.142;2022-12-16T01:36:57;101075.97;;;-3.44;100.00
67840;BME280;54636;51.684;5.142;2022-12-16T01:39:23;101101.78;;;-3.23;100.00
67840;BME280;54636;51.684;5.142;2022-12-16T01:41:50;101118.88;;;-3.17;100.00
67840;BME280;54636;51.684;5.142;2022-12-16T01:44:22;101114.31;;;-3.17;100.00
67840;BME280;54636;51.684;5.142;2022-12-16T01:46:57;101123.44;;;-3.07;100.00
67840;BME280;54636;51.684;5.142;2022-12-16T01:49:43;101104.06;;;-3.22;100.00
67840;BME280;54636;51.684;5.142;2022-12-16T01:52:15;101134.81;;;-3.07;100.00
67840;BME280;54636;51.684;5.142;2022-12-16T01:54:46;101134.44;;;-3.02;100.00
67840;BME280;54636;51.684;5.142;2022-12-16T01:57:21;101106.34;;;-3.27;100.00
67840;BME280;54636;51.684;5.142;2022-12-16T01:59:50;101142.03;;;-3.00;100.00
67840;BME280;54636;51.684;5.142;2022-12-16T02:02:16;101135.19;;;-3.08;100.00
67840;BME280;54636;51.684;5.142;2022-12-16T02:04:42;101140.91;;;-2.99;100.00
67840;BME280;54636;51.684;5.142;2022-12-16T02:07:26;101148.13;;;-2.92;100.00
67840;BME280;54636;51.684;5.142;2022-12-16T02:09:53;101131.03;;;-3.06;100.00
67840;BME280;54636;51.684;5.142;2022-12-16T02:12:45;101102.16;;;-3.21;100.00
67840;BME280;54636;51.684;5.142;2022-12-16T02:21:14;101156.47;;;-2.80;100.00
67840;BME280;54636;51.684;5.142;2022-12-16T02:35:05;101166.34;;;-2.66;100.00
67840;BME280;54636;51.684;5.142;2022-12-16T02:40:08;101161.41;;;-2.68;100.00
67840;BME280;54636;51.684;5.142;2022-12-16T02:42:49;101157.63;;;-2.70;100.00
67840;BME280;54636;51.684;5.142;2022-12-16T02:45:20;101163.69;;;-2.66;100.00
67840;BME280;54636;51.684;5.142;2022-12-16T02:47:49;101164.84;;;-2.63;100.00
67840;BME280;54636;51.684;5.142;2022-12-16T02:50:19;101154.94;;;-2.67;100.00
67840;BME280;54636;51.684;5.142;2022-12-16T02:52:45;101162.13;;;-2.56;100.00
67840;BME280;54636;51.684;5.142;2022-12-16T02:55:11;101162.50;;;-2.54;100.00
67840;BME280;54636;51.684;5.142;2022-12-16T03:00:18;101163.28;;;-2.50;100.00
67840;BME280;54636;51.684;5.142;2022-12-16T03:03:22;101110.53;;;-2.84;100.00
67840;BME280;54636;51.684;5.142;2022-12-16T03:05:47;101156.81;;;-2.56;100.00
67840;BME280;54636;51.684;5.142;2022-12-16T03:08:18;101177.31;;;-2.43;100.00
67840;BME280;54636;51.684;5.142;2022-12-16T03:10:50;101181.13;;;-2.44;100.00
67840;BME280;54636;51.684;5.142;2022-12-16T03:13:18;101182.25;;;-2.41;100.00
67840;BME280;54636;51.684;5.142;2022-12-16T03:15:46;101154.53;;;-2.58;100.00
67840;BME280;54636;51.684;5.142;2022-12-16T03:18:14;101173.53;;;-2.45;100.00
67840;BME280;54636;51.684;5.142;2022-12-16T03:20:51;101161.00;;;-2.52;100.00
67840;BME280;54636;51.684;5.142;2022-12-16T03:23:24;101189.47;;;-2.35;100.00
67840;BME280;54636;51.684;5.142;2022-12-16T03:25:53;101191.75;;;-2.33;100.00
67840;BME280;54636;51.684;5.142;2022-12-16T03:28:40;101194.78;;;-2.27;100.00
67840;BME280;54636;51.684;5.142;2022-12-16T03:33:46;101192.13;;;-2.27;100.00
67840;BME280;54636;51.684;5.142;2022-12-16T03:36:17;101147.69;;;-2.55;100.00
67840;BME280;54636;51.684;5.142;2022-12-16T03:38:45;101186.44;;;-2.26;100.00
67840;BME280;54636;51.684;5.142;2022-12-16T03:41:12;101201.22;;;-2.07;100.00
67840;BME280;54636;51.684;5.142;2022-12-16T03:43:39;101198.19;;;-2.09;100.00
67840;BME280;54636;51.684;5.142;2022-12-16T03:46:05;101210.72;;;-1.99;100.00
67840;BME280;54636;51.684;5.142;2022-12-16T03:48:32;101192.88;;;-2.13;100.00
67840;BME280;54636;51.684;5.142;2022-12-16T03:50:58;101202.72;;;-2.03;100.00
67840;BME280;54636;51.684;5.142;2022-12-16T03:53:24;101220.94;;;-1.94;100.00
67840;BME280;54636;51.684;5.142;2022-12-16T03:55:52;101227.78;;;-1.89;100.00
67840;BME280;54636;51.684;5.142;2022-12-16T03:58:18;101236.88;;;-1.83;100.00
67840;BME280;54636;51.684;5.142;2022-12-16T04:00:43;101225.84;;;-1.82;100.00
67840;BME280;54636;51.684;5.142;2022-12-16T04:03:08;101233.09;;;-1.82;100.00
67840;BME280;54636;51.684;5.142;2022-12-16T04:05:34;101241.81;;;-1.75;100.00
67840;BME280;54636;51.684;5.142;2022-12-16T04:08:00;101243.72;;;-1.72;100.00
67840;BME280;54636;51.684;5.142;2022-12-16T04:10:25;101245.59;;;-1.69;100.00
67840;BME280;54636;51.684;5.142;2022-12-16T04:13:11;101232.28;;;-1.69;100.00
67840;BME280;54636;51.684;5.142;2022-12-16T04:15:55;101241.38;;;-1.59;100.00
67840;BME280;54636;51.684;5.142;2022-12-16T04:18:39;101244.44;;;-1.57;100.00
67840;BME280;54636;51.684;5.142;2022-12-16T04:21:24;101239.47;;;-1.51;100.00
67840;BME280;54636;51.684;5.142;2022-12-16T04:24:13;101244.38;;;-1.46;100.00
67840;BME280;54636;51.684;5.142;2022-12-16T04:26:43;101254.25;;;-1.40;100.00
67840;BME280;54636;51.684;5.142;2022-12-16T04:29:27;101209.84;;;-1.71;100.00
67840;BME280;54636;51.684;5.142;2022-12-16T04:31:55;101213.66;;;-1.69;100.00
67840;BME280;54636;51.684;5.142;2022-12-16T04:34:21;101253.91;;;-1.45;100.00
67840;BME280;54636;51.684;5.142;2022-12-16T04:36:51;101266.81;;;-1.37;100.00
67840;BME280;54636;51.684;5.142;2022-12-16T04:39:40;101271.78;;;-1.42;100.00
67840;BME280;54636;51.684;5.142;2022-12-16T04:42:24;101267.59;;;-1.43;100.00
67840;BME280;54636;51.684;5.142;2022-12-16T04:45:09;101252.41;;;-1.50;100.00
67840;BME280;54636;51.684;5.142;2022-12-16T04:47:53;101281.63;;;-1.32;100.00
67840;BME280;54636;51.684;5.142;2022-12-16T04:50:38;101277.84;;;-1.35;100.00
67840;BME280;54636;51.684;5.142;2022-12-16T04:53:23;101277.50;;;-1.44;100.00
67840;BME280;54636;51.684;5.142;2022-12-16T04:56:07;101291.53;;;-1.33;100.00
67840;BME280;54636;51.684;5.142;2022-12-16T04:58:51;101290.41;;;-1.35;100.00
67840;BME280;54636;51.684;5.142;2022-12-16T05:01:35;101291.16;;;-1.35;100.00
67840;BME280;54636;51.684;5.142;2022-12-16T05:04:19;101272.56;;;-1.52;100.00
67840;BME280;54636;51.684;5.142;2022-12-16T05:07:03;101292.31;;;-1.36;100.00
67840;BME280;54636;51.684;5.142;2022-12-16T05:09:46;101294.16;;;-1.29;100.00
67840;BME280;54636;51.684;5.142;2022-12-16T05:12:30;101282.00;;;-1.30;100.00
67840;BME280;54636;51.684;5.142;2022-12-16T05:15:14;101271.38;;;-1.41;100.00
67840;BME280;54636;51.684;5.142;2022-12-16T05:17:58;101300.63;;;-1.26;100.00
67840;BME280;54636;51.684;5.142;2022-12-16T05:20:42;101307.47;;;-1.29;100.00
67840;BME280;54636;51.684;5.142;2022-12-16T05:23:25;101312.06;;;-1.29;100.00
67840;BME280;54636;51.684;5.142;2022-12-16T05:26:09;101301.84;;;-1.38;100.00
67840;BME280;54636;51.684;5.142;2022-12-16T05:28:53;101306.03;;;-1.41;100.00
67840;BME280;54636;51.684;5.142;2022-12-16T05:31:37;101319.75;;;-1.46;100.00
67840;BME280;54636;51.684;5.142;2022-12-16T05:34:32;101330.41;;;-1.42;100.00
67840;BME280;54636;51.684;5.142;2022-12-16T05:37:15;101333.06;;;-1.46;100.00
67840;BME280;54636;51.684;5.142;2022-12-16T05:39:59;101317.47;;;-1.51;100.00
67840;BME280;54636;51.684;5.142;2022-12-16T05:42:46;101298.88;;;-1.69;100.00
67840;BME280;54636;51.684;5.142;2022-12-16T05:45:30;101334.63;;;-1.59;100.00
67840;BME280;54636;51.684;5.142;2022-12-16T05:48:14;101309.94;;;-1.88;100.00
67840;BME280;54636;51.684;5.142;2022-12-16T05:50:58;101334.25;;;-1.82;100.00
67840;BME280;54636;51.684;5.142;2022-12-16T05:53:42;101314.16;;;-2.01;100.00
67840;BME280;54636;51.684;5.142;2022-12-16T05:56:26;101336.56;;;-1.84;100.00
67840;BME280;54636;51.684;5.142;2022-12-16T05:59:10;101334.66;;;-1.84;100.00
67840;BME280;54636;51.684;5.142;2022-12-16T06:01:54;101343.78;;;-1.85;100.00
67840;BME280;54636;51.684;5.142;2022-12-16T06:04:38;101343.78;;;-1.92;100.00
67840;BME280;54636;51.684;5.142;2022-12-16T06:07:21;101325.56;;;-2.15;100.00
67840;BME280;54636;51.684;5.142;2022-12-16T06:10:06;101352.53;;;-2.16;100.00
67840;BME280;54636;51.684;5.142;2022-12-16T06:12:49;101347.22;;;-2.30;100.00
67840;BME280;54636;51.684;5.142;2022-12-16T06:15:33;101326.63;;;-2.58;100.00
67840;BME280;54636;51.684;5.142;2022-12-16T06:18:17;101353.63;;;-2.60;100.00
67840;BME280;54636;51.684;5.142;2022-12-16T06:21:01;101345.59;;;-2.78;100.00
67840;BME280;54636;51.684;5.142;2022-12-16T06:23:45;101348.22;;;-2.92;100.00
67840;BME280;54636;51.684;5.142;2022-12-16T06:26:42;101332.53;;;-3.18;100.00
67840;BME280;54636;51.684;5.142;2022-12-16T06:29:26;101344.69;;;-3.17;100.00
67840;BME280;54636;51.684;5.142;2022-12-16T06:32:10;101335.91;;;-3.36;100.00
67840;BME280;54636;51.684;5.142;2022-12-16T06:34:54;101347.66;;;-3.37;100.00
67840;BME280;54636;51.684;5.142;2022-12-16T06:37:48;101322.84;;;-3.62;100.00
67840;BME280;54636;51.684;5.142;2022-12-16T06:40:33;101331.53;;;-3.69;100.00
67840;BME280;54636;51.684;5.142;2022-12-16T06:43:16;101335.25;;;-3.80;100.00
67840;BME280;54636;51.684;5.142;2022-12-16T06:46:00;101356.88;;;-3.75;100.00
67840;BME280;54636;51.684;5.142;2022-12-16T06:48:44;101367.09;;;-3.80;100.00
67840;BME280;54636;51.684;5.142;2022-12-16T06:51:28;101384.53;;;-3.79;100.00
67840;BME280;54636;51.684;5.142;2022-12-16T06:54:12;101364.72;;;-3.96;100.00
67840;BME280;54636;51.684;5.142;2022-12-16T06:56:56;101372.72;;;-3.89;100.00
67840;BME280;54636;51.684;5.142;2022-12-16T06:59:42;101378.38;;;-3.94;100.00
67840;BME280;54636;51.684;5.142;2022-12-16T07:02:26;101389.75;;;-3.93;100.00
67840;BME280;54636;51.684;5.142;2022-12-16T07:05:11;101402.25;;;-3.94;100.00
67840;BME280;54636;51.684;5.142;2022-12-16T07:07:54;101387.69;;;-4.14;100.00
67840;BME280;54636;51.684;5.142;2022-12-16T07:10:38;101415.47;;;-4.01;100.00
67840;BME280;54636;51.684;5.142;2022-12-16T07:13:22;101408.16;;;-4.11;100.00
67840;BME280;54636;51.684;5.142;2022-12-16T07:16:06;101402.00;;;-4.22;100.00
67840;BME280;54636;51.684;5.142;2022-12-16T07:18:50;101424.38;;;-4.20;100.00
67840;BME280;54636;51.684;5.142;2022-12-16T07:21:34;101380.84;;;-4.56;100.00
67840;BME280;54636;51.684;5.142;2022-12-16T07:24:18;101437.59;;;-4.23;100.00
67840;BME280;54636;51.684;5.142;2022-12-16T07:27:02;101436.81;;;-4.27;100.00
67840;BME280;54636;51.684;5.142;2022-12-16T07:29:46;101434.16;;;-4.27;100.00
67840;BME280;54636;51.684;5.142;2022-12-16T07:32:30;101433.72;;;-4.33;100.00
67840;BME280;54636;51.684;5.142;2022-12-16T07:35:14;101403.94;;;-4.56;100.00
67840;BME280;54636;51.684;5.142;2022-12-16T07:37:58;101445.13;;;-4.29;100.00
67840;BME280;54636;51.684;5.142;2022-12-16T07:40:42;101433.00;;;-4.30;100.00
67840;BME280;54636;51.684;5.142;2022-12-16T07:43:26;101445.97;;;-4.21;100.00
67840;BME280;54636;51.684;5.142;2022-12-16T07:46:10;101450.13;;;-4.20;100.00
67840;BME280;54636;51.684;5.142;2022-12-16T07:48:54;101437.56;;;-4.27;100.00
67840;BME280;54636;51.684;5.142;2022-12-16T07:51:38;101459.31;;;-4.14;100.00
67840;BME280;54636;51.684;5.142;2022-12-16T07:54:30;101458.94;;;-4.13;100.00
67840;BME280;54636;51.684;5.142;2022-12-16T07:57:17;101467.31;;;-4.11;100.00
67840;BME280;54636;51.684;5.142;2022-12-16T08:00:00;101472.63;;;-4.07;100.00
67840;BME280;54636;51.684;5.142;2022-12-16T08:02:44;101453.53;;;-4.23;100.00
67840;BME280;54636;51.684;5.142;2022-12-16T08:05:28;101474.84;;;-4.13;100.00
67840;BME280;54636;51.684;5.142;2022-12-16T08:08:12;101497.31;;;-4.03;100.00
67840;BME280;54636;51.684;5.142;2022-12-16T08:10:56;101489.31;;;-4.07;100.00
67840;BME280;54636;51.684;5.142;2022-12-16T08:13:41;101474.00;;;-4.20;100.00
67840;BME280;54636;51.684;5.142;2022-12-16T08:16:24;101494.19;;;-4.12;100.00
67840;BME280;54636;51.684;5.142;2022-12-16T08:19:08;101519.34;;;-3.99;100.00
67840;BME280;54636;51.684;5.142;2022-12-16T08:21:52;101516.34;;;-3.97;100.00
67840;BME280;54636;51.684;5.142;2022-12-16T08:24:36;101516.69;;;-3.99;100.00
67840;BME280;54636;51.684;5.142;2022-12-16T08:27:20;101489.88;;;-4.24;100.00
67840;BME280;54636;51.684;5.142;2022-12-16T08:30:05;101523.50;;;-4.02;100.00
67840;BME280;54636;51.684;5.142;2022-12-16T08:32:49;101512.78;;;-4.09;100.00
67840;BME280;54636;51.684;5.142;2022-12-16T08:35:33;101528.41;;;-4.04;100.00
67840;BME280;54636;51.684;5.142;2022-12-16T08:38:17;101517.31;;;-4.13;100.00
67840;BME280;54636;51.684;5.142;2022-12-16T08:41:01;101518.47;;;-4.10;100.00
67840;BME280;54636;51.684;5.142;2022-12-16T08:43:45;101527.72;;;-3.97;100.00
67840;BME280;54636;51.684;5.142;2022-12-16T08:46:29;101535.78;;;-3.83;100.00
67840;BME280;54636;51.684;5.142;2022-12-16T08:49:13;101543.09;;;-3.73;100.00
67840;BME280;54636;51.684;5.142;2022-12-16T08:51:57;101541.72;;;-3.59;100.00
67840;BME280;54636;51.684;5.142;2022-12-16T08:54:41;101548.63;;;-3.51;100.00
67840;BME280;54636;51.684;5.142;2022-12-16T08:57:38;101551.75;;;-3.42;100.00
67840;BME280;54636;51.684;5.142;2022-12-16T09:00:22;101558.63;;;-3.38;100.00
67840;BME280;54636;51.684;5.142;2022-12-16T09:03:08;101548.03;;;-3.34;100.00
67840;BME280;54636;51.684;5.142;2022-12-16T09:05:57;101556.81;;;-3.26;100.00
67840;BME280;54636;51.684;5.142;2022-12-16T09:08:41;101561.00;;;-3.25;100.00
67840;BME280;54636;51.684;5.142;2022-12-16T09:11:25;101554.16;;;-3.23;100.00
67840;BME280;54636;51.684;5.142;2022-12-16T09:14:09;101566.81;;;-3.09;100.00
67840;BME280;54636;51.684;5.142;2022-12-16T09:16:53;101501.19;;;-3.53;100.00
67840;BME280;54636;51.684;5.142;2022-12-16T09:19:40;101558.03;;;-3.13;100.00
67840;BME280;54636;51.684;5.142;2022-12-16T09:22:24;101554.28;;;-3.09;100.00
67840;BME280;54636;51.684;5.142;2022-12-16T09:25:08;101580.22;;;-2.91;100.00
67840;BME280;54636;51.684;5.142;2022-12-16T09:27:52;101586.03;;;-2.79;100.00
67840;BME280;54636;51.684;5.142;2022-12-16T09:30:36;101575.34;;;-2.82;100.00
67840;BME280;54636;51.684;5.142;2022-12-16T09:33:20;101605.88;;;-2.66;100.00
67840;BME280;54636;51.684;5.142;2022-12-16T09:36:04;101582.66;;;-2.72;100.00
67840;BME280;54636;51.684;5.142;2022-12-16T09:38:48;101584.56;;;-2.69;100.00
67840;BME280;54636;51.684;5.142;2022-12-16T09:42:13;101605.13;;;-2.59;100.00
67840;BME280;54636;51.684;5.142;2022-12-16T09:45:35;101612.41;;;-2.49;100.00
67840;BME280;54636;51.684;5.142;2022-12-16T09:51:25;101596.41;;;-2.56;100.00
67840;BME280;54636;51.684;5.142;2022-12-16T09:54:15;101594.53;;;-2.52;100.00
67840;BME280;54636;51.684;5.142;2022-12-16T09:57:05;101614.44;;;-2.28;100.00
67840;BME280;54636;51.684;5.142;2022-12-16T09:59:58;101617.13;;;-2.24;100.00
67840;BME280;54636;51.684;5.142;2022-12-16T10:02:57;101627.00;;;-2.21;100.00
67840;BME280;54636;51.684;5.142;2022-12-16T10:06:01;101627.78;;;-2.17;100.00
67840;BME280;54636;51.684;5.142;2022-12-16T10:09:14;101617.53;;;-2.19;100.00
67840;BME280;54636;51.684;5.142;2022-12-16T10:18:27;101654.88;;;-1.94;100.00
67840;BME280;54636;51.684;5.142;2022-12-16T10:21:19;101639.28;;;-1.99;100.00
67840;BME280;54636;51.684;5.142;2022-12-16T10:26:57;101656.88;;;-1.77;100.00
67840;BME280;54636;51.684;5.142;2022-12-16T10:29:53;101663.72;;;-1.72;100.00
67840;BME280;54636;51.684;5.142;2022-12-16T10:32:45;101644.31;;;-1.76;100.00
67840;BME280;54636;51.684;5.142;2022-12-16T10:35:35;101648.53;;;-1.64;100.00
67840;BME280;54636;51.684;5.142;2022-12-16T10:41:23;101605.47;;;-1.84;100.00
67840;BME280;54636;51.684;5.142;2022-12-16T10:44:34;101671.84;;;-1.37;100.00
67840;BME280;54636;51.684;5.142;2022-12-16T10:47:20;101668.78;;;-1.28;100.00
67840;BME280;54636;51.684;5.142;2022-12-16T10:50:04;101666.13;;;-1.24;100.00
67840;BME280;54636;51.684;5.142;2022-12-16T10:52:54;101665.41;;;-1.11;100.00
67840;BME280;54636;51.684;5.142;2022-12-16T10:56:25;101671.16;;;-0.94;100.00
67840;BME280;54636;51.684;5.142;2022-12-16T10:59:17;101655.16;;;-0.94;100.00
67840;BME280;54636;51.684;5.142;2022-12-16T11:02:17;101661.63;;;-0.88;100.00
67840;BME280;54636;51.684;5.142;2022-12-16T11:05:21;101661.63;;;-0.92;100.00
67840;BME280;54636;51.684;5.142;2022-12-16T11:11:22;101670.78;;;-0.75;100.00
67840;BME280;54636;51.684;5.142;2022-12-16T11:17:23;101684.50;;;-0.70;100.00
67840;BME280;54636;51.684;5.142;2022-12-16T11:23:20;101683.72;;;-0.63;100.00
67840;BME280;54636;51.684;5.142;2022-12-16T11:29:19;101685.22;;;-0.62;100.00
67840;BME280;54636;51.684;5.142;2022-12-16T11:32:21;101673.41;;;-0.64;100.00
67840;BME280;54636;51.684;5.142;2022-12-16T11:35:18;101661.25;;;-0.65;100.00
67840;BME280;54636;51.684;5.142;2022-12-16T11:38:11;101660.06;;;-0.64;100.00
67840;BME280;54636;51.684;5.142;2022-12-16T11:40:59;101675.69;;;-0.49;100.00
67840;BME280;54636;51.684;5.142;2022-12-16T11:43:46;101690.16;;;-0.32;100.00
67840;BME280;54636;51.684;5.142;2022-12-16T11:46:32;101670.34;;;-0.38;100.00
67840;BME280;54636;51.684;5.142;2022-12-16T11:49:31;101697.38;;;-0.11;100.00
67840;BME280;54636;51.684;5.142;2022-12-16T11:52:19;101678.69;;;-0.08;100.00
67840;BME280;54636;51.684;5.142;2022-12-16T11:55:17;101685.13;;;0.06;100.00
67840;BME280;54636;51.684;5.142;2022-12-16T11:58:17;101689.28;;;0.10;100.00
67840;BME280;54636;51.684;5.142;2022-12-16T12:01:21;101670.59;;;0.10;100.00
67840;BME280;54636;51.684;5.142;2022-12-16T12:04:07;101668.28;;;0.16;100.00
67840;BME280;54636;51.684;5.142;2022-12-16T12:07:20;101688.44;;;0.35;100.00
67840;BME280;54636;51.684;5.142;2022-12-16T12:13:01;101684.22;;;0.41;100.00
67840;BME280;54636;51.684;5.142;2022-12-16T12:16:17;101647.66;;;0.23;100.00
67840;BME280;54636;51.684;5.142;2022-12-16T12:19:15;101683.41;;;0.54;100.00
67840;BME280;54636;51.684;5.142;2022-12-16T12:22:06;101673.88;;;0.50;100.00
67840;BME280;54636;51.684;5.142;2022-12-16T12:25:24;101684.13;;;0.62;100.00
67840;BME280;54636;51.684;5.142;2022-12-16T12:34:31;101676.78;;;0.73;100.00
67840;BME280;54636;51.684;5.142;2022-12-16T12:40:35;101645.88;;;0.69;100.00
67840;BME280;54636;51.684;5.142;2022-12-16T12:43:35;101677.81;;;0.93;100.00
67840;BME280;54636;51.684;5.142;2022-12-16T12:56:01;101695.09;;;1.33;100.00
67840;BME280;54636;51.684;5.142;2022-12-16T12:58:50;101679.50;;;1.25;100.00
67840;BME280;54636;51.684;5.142;2022-12-16T13:01:36;101697.75;;;1.33;100.00
67840;BME280;54636;51.684;5.142;2022-12-16T13:04:24;101704.66;;;1.31;100.00
67840;BME280;54636;51.684;5.142;2022-12-16T13:07:08;101677.66;;;1.15;100.00
67840;BME280;54636;51.684;5.142;2022-12-16T13:16:08;101718.03;;;1.31;100.00
67840;BME280;54636;51.684;5.142;2022-12-16T13:22:33;101715.31;;;1.38;100.00
67840;BME280;54636;51.684;5.142;2022-12-16T13:25:55;101730.97;;;1.43;100.00
67840;BME280;54636;51.684;5.142;2022-12-16T13:29:23;101698.22;;;1.25;100.00
67840;BME280;54636;51.684;5.142;2022-12-16T13:35:04;101728.00;;;1.30;100.00
67840;BME280;54636;51.684;5.142;2022-12-16T13:41:08;101716.56;;;1.26;100.00
67840;BME280;54636;51.684;5.142;2022-12-16T13:44:10;101706.31;;;1.18;100.00
67840;BME280;54636;51.684;5.142;2022-12-16T13:46:55;101733.75;;;1.29;100.00
67840;BME280;54636;51.684;5.142;2022-12-16T13:49:48;101739.81;;;1.33;100.00
67840;BME280;54636;51.684;5.142;2022-12-16T13:55:29;101733.31;;;1.34;100.00
67840;BME280;54636;51.684;5.142;2022-12-16T13:58:35;101742.09;;;1.35;100.00
67840;BME280;54636;51.684;5.142;2022-12-16T14:01:43;101752.06;;;1.30;100.00
67840;BME280;54636;51.684;5.142;2022-12-16T14:04:34;101756.22;;;1.39;100.00
67840;BME280;54636;51.684;5.142;2022-12-16T14:07:21;101741.78;;;1.29;100.00
67840;BME280;54636;51.684;5.142;2022-12-16T14:16:27;101768.97;;;1.24;100.00
67840;BME280;54636;51.684;5.142;2022-12-16T14:19:45;101781.88;;;1.36;100.00
67840;BME280;54636;51.684;5.142;2022-12-16T14:25:31;101789.34;;;1.59;100.00
67840;BME280;54636;51.684;5.142;2022-12-16T14:28:37;101791.25;;;1.62;100.00
67840;BME280;54636;51.684;5.142;2022-12-16T14:31:34;101778.78;;;1.41;100.00
67840;BME280;54636;51.684;5.142;2022-12-16T14:34:24;101799.72;;;1.53;100.00
67840;BME280;54636;51.684;5.142;2022-12-16T14:37:15;101799.78;;;1.46;100.00
67840;BME280;54636;51.684;5.142;2022-12-16T14:40:00;101802.88;;;1.41;100.00
67840;BME280;54636;51.684;5.142;2022-12-16T14:42:46;101807.06;;;1.42;100.00
67840;BME280;54636;51.684;5.142;2022-12-16T14:45:34;101817.03;;;1.38;100.00
67840;BME280;54636;51.684;5.142;2022-12-16T14:51:18;101790.13;;;0.97;100.00
67840;BME280;54636;51.684;5.142;2022-12-16T14:54:30;101818.06;;;0.92;100.00
67840;BME280;54636;51.684;5.142;2022-12-16T14:57:20;101805.91;;;0.70;100.00
67840;BME280;54636;51.684;5.142;2022-12-16T15:02:54;101835.34;;;0.66;100.00
67840;BME280;54636;51.684;5.142;2022-12-16T15:05:40;101815.91;;;0.52;100.00
67840;BME280;54636;51.684;5.142;2022-12-16T15:08:26;101815.53;;;0.50;100.00
67840;BME280;54636;51.684;5.142;2022-12-16T15:11:12;101833.50;;;0.53;100.00
67840;BME280;54636;51.684;5.142;2022-12-16T15:13:58;101838.84;;;0.42;100.00
67840;BME280;54636;51.684;5.142;2022-12-16T15:16:46;101835.06;;;0.29;100.00
67840;BME280;54636;51.684;5.142;2022-12-16T15:19:50;101832.41;;;0.18;100.00
67840;BME280;54636;51.684;5.142;2022-12-16T15:22:36;101844.59;;;0.19;100.00
67840;BME280;54636;51.684;5.142;2022-12-16T15:25:24;101859.50;;;0.17;100.00
67840;BME280;54636;51.684;5.142;2022-12-16T15:28:24;101851.88;;;0.12;100.00
67840;BME280;54636;51.684;5.142;2022-12-16T15:31:26;101840.06;;;-0.05;100.00
67840;BME280;54636;51.684;5.142;2022-12-16T15:37:03;101864.09;;;-0.05;100.00
67840;BME280;54636;51.684;5.142;2022-12-16T15:39:47;101841.56;;;-0.25;100.00
67840;BME280;54636;51.684;5.142;2022-12-16T15:42:32;101863.72;;;-0.14;100.00
67840;BME280;54636;51.684;5.142;2022-12-16T15:45:25;101880.50;;;-0.17;100.00
67840;BME280;54636;51.684;5.142;2022-12-16T15:51:19;101893.06;;;-0.25;100.00
67840;BME280;54636;51.684;5.142;2022-12-16T15:54:03;101885.78;;;-0.35;100.00
67840;BME280;54636;51.684;5.142;2022-12-16T15:56:47;101901.44;;;-0.30;100.00
67840;BME280;54636;51.684;5.142;2022-12-16T15:59:34;101883.84;;;-0.49;100.00